createdAt,value
2022-12-03T00:02:04.177Z,1.50
2022-12-03T00:05:07.160Z,1.52
2022-12-03T00:08:10.150Z,1.52
2022-12-03T00:11:14.559Z,1.52
2022-12-03T00:14:17.339Z,1.52
2022-12-03T00:17:20.124Z,1.52
2022-12-03T00:20:26.240Z,1.52
2022-12-03T00:23:28.891Z,1.52
2022-12-03T00:26:31.641Z,1.53
2022-12-03T00:29:34.606Z,1.53
2022-12-03T00:32:37.403Z,1.55
2022-12-03T00:35:40.151Z,1.54
2022-12-03T00:38:49.115Z,1.54
2022-12-03T00:41:52.009Z,1.53
2022-12-03T00:44:55.273Z,1.53
2022-12-03T00:47:58.217Z,1.54
2022-12-03T00:51:01.014Z,1.55
2022-12-03T00:54:03.869Z,1.54
2022-12-03T00:57:06.846Z,1.55
2022-12-03T01:00:11.567Z,1.55
2022-12-03T01:03:17.574Z,1.56
2022-12-03T01:06:20.453Z,1.56
2022-12-03T01:09:26.314Z,1.57
2022-12-03T01:12:29.131Z,1.57
2022-12-03T01:15:31.891Z,1.58
2022-12-03T01:18:34.607Z,1.59
2022-12-03T01:21:38.104Z,1.59
2022-12-03T01:24:40.773Z,1.61
2022-12-03T01:27:46.568Z,1.62
2022-12-03T01:31:08.001Z,1.63
2022-12-03T01:34:10.855Z,1.63
2022-12-03T01:37:13.921Z,1.64
2022-12-03T01:40:20.473Z,1.64
2022-12-03T01:43:24.585Z,1.65
2022-12-03T01:46:34.001Z,1.67
2022-12-03T01:49:43.548Z,1.66
2022-12-03T01:52:46.544Z,1.66
2022-12-03T01:55:49.310Z,1.66
2022-12-03T01:58:52.113Z,1.67
2022-12-03T02:01:54.939Z,1.67
2022-12-03T02:04:58.251Z,1.67
2022-12-03T02:08:01.560Z,1.68
2022-12-03T02:11:21.073Z,1.68
2022-12-03T02:14:23.921Z,1.68
2022-12-03T02:17:27.695Z,1.68
2022-12-03T02:20:32.318Z,1.69
2022-12-03T02:23:56.079Z,1.69
2022-12-03T02:26:58.873Z,1.68
2022-12-03T02:30:01.797Z,1.69
2022-12-03T02:33:06.128Z,1.70
2022-12-03T02:36:09.720Z,1.71
2022-12-03T02:39:12.375Z,1.71
2022-12-03T02:42:33.648Z,1.71
2022-12-03T02:45:42.169Z,1.72
2022-12-03T02:48:47.925Z,1.72
2022-12-03T02:51:50.731Z,1.75
2022-12-03T02:54:54.013Z,1.75
2022-12-03T02:57:59.963Z,1.77
2022-12-03T03:01:05.902Z,1.76
2022-12-03T03:04:09.148Z,1.76
2022-12-03T03:07:11.994Z,1.78
2022-12-03T03:10:19.124Z,1.78
2022-12-03T03:13:22.196Z,1.78
2022-12-03T03:16:28.037Z,1.79
2022-12-03T03:19:31.366Z,1.79
2022-12-03T03:22:39.731Z,1.78
2022-12-03T03:25:45.296Z,1.79
2022-12-03T03:28:50.226Z,1.80
2022-12-03T03:31:53.248Z,1.79
2022-12-03T03:34:56.572Z,1.79
2022-12-03T03:37:59.917Z,1.80
2022-12-03T03:41:04.306Z,1.80
2022-12-03T03:44:10.679Z,1.81
2022-12-03T03:47:13.622Z,1.81
2022-12-03T03:50:16.959Z,1.80
2022-12-03T03:53:20.283Z,1.79
2022-12-03T03:56:24.183Z,1.79
2022-12-03T03:59:27.012Z,1.79
2022-12-03T04:02:29.921Z,1.78
2022-12-03T04:05:32.736Z,1.77
2022-12-03T04:08:36.100Z,1.78
2022-12-03T04:11:57.253Z,1.78
2022-12-03T04:15:00.108Z,1.77
2022-12-03T04:18:21.485Z,1.77
2022-12-03T04:21:43.357Z,1.78
2022-12-03T04:24:46.073Z,1.78
2022-12-03T04:28:07.410Z,1.76
2022-12-03T04:31:28.734Z,1.78
2022-12-03T04:34:50.692Z,1.77
2022-12-03T04:37:54.589Z,1.78
2022-12-03T04:41:06.420Z,1.79
2022-12-03T04:44:30.570Z,1.81
2022-12-03T04:47:39.860Z,1.80
2022-12-03T04:50:43.304Z,1.79
2022-12-03T04:53:46.414Z,1.81
2022-12-03T04:56:52.240Z,1.82
2022-12-03T04:59:58.255Z,1.81
2022-12-03T05:03:01.169Z,1.81
2022-12-03T05:06:04.324Z,1.83
2022-12-03T05:09:07.117Z,1.83
2022-12-03T05:12:09.820Z,1.84
2022-12-03T05:15:12.566Z,1.84
2022-12-03T05:18:15.483Z,1.84
2022-12-03T05:21:18.299Z,1.86
2022-12-03T05:24:21.128Z,1.85
2022-12-03T05:27:24.458Z,1.86
2022-12-03T05:30:27.357Z,1.87
2022-12-03T05:33:30.350Z,1.87
2022-12-03T05:36:33.123Z,1.86
2022-12-03T05:39:36.148Z,1.88
2022-12-03T05:42:54.576Z,1.88
2022-12-03T05:45:57.304Z,1.89
2022-12-03T05:49:00.295Z,1.88
2022-12-03T05:52:03.197Z,1.90
2022-12-03T05:55:07.345Z,1.91
2022-12-03T05:58:10.212Z,1.92
2022-12-03T06:01:12.994Z,1.93
2022-12-03T06:04:15.699Z,1.93
2022-12-03T06:07:18.751Z,1.94
2022-12-03T06:10:25.443Z,1.94
2022-12-03T06:13:28.193Z,1.94
2022-12-03T06:16:31.079Z,1.94
2022-12-03T06:19:34.174Z,1.95
2022-12-03T06:22:36.965Z,1.94
2022-12-03T06:25:39.731Z,1.95
2022-12-03T06:28:48.633Z,1.96
2022-12-03T06:31:51.910Z,1.97
2022-12-03T06:34:55.099Z,1.97
2022-12-03T06:37:58.210Z,1.99
2022-12-03T06:41:01.151Z,1.99
2022-12-03T06:44:04.039Z,2.00
2022-12-03T06:47:06.809Z,2.01
2022-12-03T06:50:09.889Z,2.03
2022-12-03T06:53:12.842Z,2.03
2022-12-03T06:56:20.058Z,2.04
2022-12-03T06:59:25.045Z,2.07
2022-12-03T07:02:28.325Z,2.09
2022-12-03T07:05:31.417Z,2.10
2022-12-03T07:08:34.639Z,2.13
2022-12-03T07:11:40.796Z,2.14
2022-12-03T07:14:45.446Z,2.17
2022-12-03T07:17:50.272Z,2.20
2022-12-03T07:20:53.114Z,2.25
2022-12-03T07:23:56.016Z,2.28
2022-12-03T07:26:59.804Z,2.33
2022-12-03T07:30:02.815Z,2.33
2022-12-03T07:33:05.783Z,2.32
2022-12-03T07:36:09.298Z,2.35
2022-12-03T07:39:12.171Z,2.31
2022-12-03T07:42:15.093Z,2.29
2022-12-03T07:45:17.987Z,2.30
2022-12-03T07:48:20.963Z,2.31
2022-12-03T07:51:28.804Z,2.34
2022-12-03T07:54:34.778Z,2.36
2022-12-03T07:57:37.817Z,2.40
2022-12-03T08:00:41.222Z,2.41
2022-12-03T08:03:44.043Z,2.43
2022-12-03T08:06:46.869Z,2.44
2022-12-03T08:09:50.367Z,2.46
2022-12-03T08:12:54.047Z,2.45
2022-12-03T08:16:01.417Z,2.47
2022-12-03T08:19:08.355Z,2.47
2022-12-03T08:22:15.463Z,2.49
2022-12-03T08:25:26.907Z,2.46
2022-12-03T08:28:30.784Z,2.47
2022-12-03T08:31:34.198Z,2.47
2022-12-03T08:34:44.383Z,2.47
2022-12-03T08:37:47.221Z,2.45
2022-12-03T08:40:52.184Z,2.46
2022-12-03T08:43:55.190Z,2.47
2022-12-03T08:47:10.171Z,2.45
2022-12-03T08:50:40.562Z,2.46
2022-12-03T08:53:55.347Z,2.47
2022-12-03T08:57:02.411Z,2.44
2022-12-03T09:00:20.945Z,2.34
2022-12-03T09:03:24.707Z,2.28
2022-12-03T09:06:27.552Z,2.31
2022-12-03T09:09:30.902Z,2.31
2022-12-03T09:12:33.654Z,2.36
2022-12-03T09:15:36.444Z,2.37
2022-12-03T09:18:39.902Z,2.38
2022-12-03T09:21:42.832Z,2.38
2022-12-03T09:24:45.693Z,2.33
2022-12-03T09:27:48.653Z,2.32
2022-12-03T09:30:51.476Z,2.33
2022-12-03T09:33:54.500Z,2.43
2022-12-03T09:36:57.271Z,2.44
2022-12-03T09:40:00.174Z,2.52
2022-12-03T09:43:03.013Z,2.52
2022-12-03T09:46:06.160Z,2.55
2022-12-03T09:49:15.733Z,2.57
2022-12-03T09:52:26.670Z,2.55
2022-12-03T09:55:31.044Z,2.57
2022-12-03T09:58:35.053Z,2.64
2022-12-03T10:01:41.166Z,2.61
2022-12-03T10:04:44.042Z,2.70
2022-12-03T10:07:47.953Z,2.65
2022-12-03T10:10:53.095Z,2.62
2022-12-03T10:13:56.916Z,2.71
2022-12-03T10:16:59.970Z,2.61
2022-12-03T10:20:02.975Z,2.63
2022-12-03T10:23:06.129Z,2.63
2022-12-03T10:26:08.894Z,2.60
2022-12-03T10:29:20.857Z,2.62
2022-12-03T10:32:29.225Z,2.58
2022-12-03T10:35:41.530Z,2.58
2022-12-03T10:38:44.795Z,2.58
2022-12-03T10:41:47.967Z,2.61
2022-12-03T10:45:07.710Z,2.61
2022-12-03T10:48:19.836Z,2.69
2022-12-03T10:51:22.752Z,2.69
2022-12-03T10:54:26.518Z,2.72
2022-12-03T10:57:32.771Z,2.75
2022-12-03T11:00:36.029Z,2.78
2022-12-03T11:03:38.976Z,2.79
2022-12-03T11:06:41.881Z,2.79
2022-12-03T11:09:46.607Z,2.79
2022-12-03T11:13:27.695Z,2.87
2022-12-03T11:16:39.623Z,2.84
2022-12-03T11:19:45.577Z,2.90
2022-12-03T11:22:49.326Z,2.99
2022-12-03T11:25:52.339Z,3.07
2022-12-03T11:28:55.905Z,3.06
2022-12-03T11:31:58.819Z,3.08
2022-12-03T11:35:16.694Z,3.09
2022-12-03T11:38:38.199Z,3.19
2022-12-03T11:41:41.023Z,3.26
2022-12-03T11:44:44.009Z,3.34
2022-12-03T11:48:00.451Z,3.40
2022-12-03T11:51:03.715Z,3.41
2022-12-03T11:54:06.697Z,3.44
2022-12-03T11:57:36.737Z,3.45
2022-12-03T12:00:39.678Z,3.50
2022-12-03T12:03:44.421Z,3.53
2022-12-03T12:06:53.152Z,3.51
2022-12-03T12:09:56.476Z,3.52
2022-12-03T12:12:59.509Z,3.48
2022-12-03T12:16:05.650Z,3.51
2022-12-03T12:19:28.723Z,3.54
2022-12-03T12:22:32.169Z,3.51
2022-12-03T12:25:37.901Z,3.51
2022-12-03T12:28:41.277Z,3.48
2022-12-03T12:31:44.782Z,3.49
2022-12-03T12:34:51.464Z,3.56
2022-12-03T12:38:03.257Z,3.58
2022-12-03T12:41:08.324Z,3.63
2022-12-03T12:44:13.439Z,3.66
2022-12-03T12:47:16.326Z,3.63
2022-12-03T12:50:20.047Z,3.66
2022-12-03T12:53:27.497Z,3.73
2022-12-03T12:56:31.826Z,3.74
2022-12-03T12:59:34.974Z,3.75
2022-12-03T13:02:42.726Z,3.82
2022-12-03T13:05:48.144Z,3.88
2022-12-03T13:08:51.341Z,3.93
2022-12-03T13:11:57.545Z,3.92
2022-12-03T13:15:01.210Z,3.91
2022-12-03T13:18:34.859Z,3.92
2022-12-03T13:21:44.815Z,3.89
2022-12-03T13:24:52.410Z,3.88
2022-12-03T13:27:55.270Z,3.88
2022-12-03T13:31:10.247Z,3.87
2022-12-03T13:34:24.847Z,3.86
2022-12-03T13:37:28.597Z,3.86
2022-12-03T13:40:35.359Z,3.87
2022-12-03T13:43:44.606Z,3.88
2022-12-03T13:46:47.847Z,3.89
2022-12-03T13:49:57.056Z,3.91
2022-12-03T13:53:02.564Z,3.91
2022-12-03T13:56:27.500Z,3.93
2022-12-03T13:59:33.525Z,3.92
2022-12-03T14:02:36.927Z,3.92
2022-12-03T14:05:40.233Z,3.93
2022-12-03T14:08:43.177Z,3.94
2022-12-03T14:12:04.548Z,3.93
2022-12-03T14:15:08.996Z,3.94
2022-12-03T14:18:14.826Z,3.96
2022-12-03T14:21:17.745Z,3.97
2022-12-03T14:24:20.586Z,3.99
2022-12-03T14:27:25.052Z,3.98
2022-12-03T14:30:28.965Z,3.96
2022-12-03T14:33:32.617Z,3.95
2022-12-03T14:36:35.506Z,3.94
2022-12-03T14:39:38.340Z,3.92
2022-12-03T14:42:41.261Z,3.91
2022-12-03T14:45:44.593Z,3.89
2022-12-03T14:48:48.299Z,3.88
2022-12-03T14:51:51.150Z,3.86
2022-12-03T14:54:54.116Z,3.85
2022-12-03T14:57:56.874Z,3.85
2022-12-03T15:00:59.860Z,3.84
2022-12-03T15:04:02.804Z,3.84
2022-12-03T15:07:06.171Z,3.83
2022-12-03T15:10:09.498Z,3.81
2022-12-03T15:13:12.479Z,3.82
2022-12-03T15:16:15.793Z,3.80
2022-12-03T15:19:18.763Z,3.81
2022-12-03T15:22:22.327Z,3.79
2022-12-03T15:25:26.297Z,3.78
2022-12-03T15:28:31.970Z,3.77
2022-12-03T15:31:34.922Z,3.76
2022-12-03T15:34:38.087Z,3.77
2022-12-03T15:37:41.086Z,3.76
2022-12-03T15:40:44.186Z,3.75
2022-12-03T15:43:51.309Z,3.74
2022-12-03T15:46:54.558Z,3.72
2022-12-03T15:49:57.497Z,3.72
2022-12-03T15:53:06.864Z,3.70
2022-12-03T15:56:12.534Z,3.66
2022-12-03T15:59:18.027Z,3.65
2022-12-03T16:02:21.145Z,3.66
2022-12-03T16:05:25.867Z,3.65
2022-12-03T16:08:28.941Z,3.64
2022-12-03T16:11:32.441Z,3.63
2022-12-03T16:14:35.698Z,3.60
2022-12-03T16:17:38.660Z,3.58
2022-12-03T16:20:41.549Z,3.57
2022-12-03T16:23:44.952Z,3.55
2022-12-03T16:26:47.875Z,3.55
2022-12-03T16:29:51.080Z,3.57
2022-12-03T16:32:57.430Z,3.56
2022-12-03T16:36:01.451Z,3.59
2022-12-03T16:39:05.453Z,3.59
2022-12-03T16:42:14.234Z,3.59
2022-12-03T16:45:33.710Z,3.59
2022-12-03T16:48:37.103Z,3.62
2022-12-03T16:51:43.859Z,3.64
2022-12-03T16:54:47.196Z,3.67
2022-12-03T16:57:50.136Z,3.67
2022-12-03T17:00:56.514Z,3.68
2022-12-03T17:03:59.399Z,3.68
2022-12-03T17:07:02.353Z,3.70
2022-12-03T17:10:06.006Z,3.71
2022-12-03T17:13:10.401Z,3.70
2022-12-03T17:16:13.905Z,3.66
2022-12-03T17:19:17.504Z,3.65
2022-12-03T17:22:20.392Z,3.65
2022-12-03T17:25:23.578Z,3.64
2022-12-03T17:28:26.626Z,3.64
2022-12-03T17:31:29.779Z,3.64
2022-12-03T17:34:32.644Z,3.64
2022-12-03T17:37:36.322Z,3.64
2022-12-03T17:40:39.300Z,3.64
2022-12-03T17:43:42.386Z,3.63
2022-12-03T17:46:45.382Z,3.61
2022-12-03T17:49:48.600Z,3.60
2022-12-03T17:52:51.528Z,3.60
2022-12-03T17:55:54.703Z,3.60
2022-12-03T17:58:58.705Z,3.59
2022-12-03T18:02:07.022Z,3.59
2022-12-03T18:05:10.233Z,3.58
2022-12-03T18:08:13.267Z,3.55
2022-12-03T18:11:16.601Z,3.54
2022-12-03T18:14:19.427Z,3.54
2022-12-03T18:17:22.242Z,3.53
2022-12-03T18:20:25.415Z,3.52
2022-12-03T18:23:29.026Z,3.50
2022-12-03T18:26:32.047Z,3.50
2022-12-03T18:29:35.144Z,3.49
2022-12-03T18:32:38.276Z,3.49
2022-12-03T18:35:42.093Z,3.48
2022-12-03T18:38:45.415Z,3.47
2022-12-03T18:41:49.867Z,3.48
2022-12-03T18:44:55.391Z,3.47
2022-12-03T18:47:59.328Z,3.47
2022-12-03T18:51:17.633Z,3.47
2022-12-03T18:54:27.749Z,3.47
2022-12-03T18:57:36.332Z,3.50
2022-12-03T19:00:42.929Z,3.46
2022-12-03T19:03:51.705Z,3.47
2022-12-03T19:06:56.124Z,3.48
2022-12-03T19:09:59.508Z,3.48
2022-12-03T19:13:03.974Z,3.48
2022-12-03T19:16:08.421Z,3.50
2022-12-03T19:19:11.874Z,3.50
2022-12-03T19:22:15.138Z,3.48
2022-12-03T19:25:18.265Z,3.49
2022-12-03T19:28:21.466Z,3.48
2022-12-03T19:31:24.678Z,3.49
2022-12-03T19:34:28.634Z,3.50
2022-12-03T19:37:34.067Z,3.47
2022-12-03T19:40:37.324Z,3.46
2022-12-03T19:43:40.872Z,3.47
2022-12-03T19:46:44.189Z,3.48
2022-12-03T19:49:47.346Z,3.47
2022-12-03T19:52:53.623Z,3.48
2022-12-03T19:56:15.001Z,3.50
2022-12-03T19:59:18.166Z,3.53
2022-12-03T20:02:21.065Z,3.65
2022-12-03T20:05:31.847Z,3.74
2022-12-03T20:08:39.412Z,3.74
2022-12-03T20:11:45.134Z,3.76
2022-12-03T20:14:51.920Z,3.80
2022-12-03T20:17:55.103Z,3.85
2022-12-03T20:20:59.232Z,3.88
2022-12-03T20:24:02.985Z,3.91
2022-12-03T20:27:06.072Z,3.96
2022-12-03T20:30:09.459Z,4.03
2022-12-03T20:33:13.856Z,4.04
2022-12-03T20:36:24.129Z,4.08
2022-12-03T20:39:27.348Z,4.12
2022-12-03T20:42:31.630Z,4.11
2022-12-03T20:45:34.701Z,4.13
2022-12-03T20:48:38.507Z,4.17
2022-12-03T20:51:42.827Z,4.22
2022-12-03T20:54:46.296Z,4.24
2022-12-03T20:57:50.296Z,4.22
2022-12-03T21:00:53.212Z,4.25
2022-12-03T21:03:57.927Z,4.25
2022-12-03T21:07:00.865Z,4.26
2022-12-03T21:10:04.059Z,4.25
2022-12-03T21:13:07.112Z,4.26
2022-12-03T21:16:13.100Z,4.33
2022-12-03T21:19:18.175Z,4.32
2022-12-03T21:22:21.043Z,4.31
2022-12-03T21:25:26.720Z,4.35
2022-12-03T21:28:29.991Z,4.34
2022-12-03T21:31:33.087Z,4.35
2022-12-03T21:34:36.687Z,4.35
2022-12-03T21:37:39.745Z,4.33
2022-12-03T21:40:42.858Z,4.33
2022-12-03T21:43:45.973Z,4.34
2022-12-03T21:47:11.701Z,4.34
2022-12-03T21:50:11.996Z,4.35
2022-12-03T21:53:14.831Z,4.37
2022-12-03T21:56:27.324Z,4.35
2022-12-03T21:59:33.100Z,4.32
2022-12-03T22:02:39.311Z,4.33
2022-12-03T22:05:43.764Z,4.35
2022-12-03T22:08:47.175Z,4.37
2022-12-03T22:11:50.140Z,4.33
2022-12-03T22:14:53.983Z,4.33
2022-12-03T22:17:56.868Z,4.33
2022-12-03T22:21:07.234Z,4.33
2022-12-03T22:24:10.134Z,4.32
2022-12-03T22:27:17.151Z,4.32
2022-12-03T22:30:20.196Z,4.33
2022-12-03T22:33:23.716Z,4.33
2022-12-03T22:36:27.604Z,4.33
2022-12-03T22:39:30.540Z,4.32
2022-12-03T22:42:33.415Z,4.31
2022-12-03T22:45:36.303Z,4.32
2022-12-03T22:48:40.404Z,4.29
2022-12-03T22:51:46.457Z,4.28
2022-12-03T22:54:55.666Z,4.27
2022-12-03T22:57:58.496Z,4.27
2022-12-03T23:01:03.068Z,4.28
2022-12-03T23:04:08.281Z,4.28
2022-12-03T23:07:11.255Z,4.25
2022-12-03T23:10:14.704Z,4.23
2022-12-03T23:13:18.635Z,4.22
2022-12-03T23:16:29.312Z,4.22
2022-12-03T23:19:32.300Z,4.22
2022-12-03T23:22:35.166Z,4.21
2022-12-03T23:25:41.232Z,4.20
2022-12-03T23:28:45.742Z,4.19
2022-12-03T23:31:48.706Z,4.17
2022-12-03T23:34:54.959Z,4.15
2022-12-03T23:37:57.781Z,4.11
2022-12-03T23:41:18.100Z,4.10
2022-12-03T23:44:20.951Z,4.06
2022-12-03T23:47:24.250Z,4.07
2022-12-03T23:50:27.965Z,4.08
2022-12-03T23:53:30.953Z,4.10
2022-12-03T23:56:33.943Z,4.09
2022-12-03T23:59:37.007Z,4.07
